Time;durP1;ratioP1;P1;durP2;ratioP2;P2;SDS_P1;SDS_P2;PMS_P1;PMS_P2;Temp;Humidity;BMP_temperature;BMP_pressure;BME280_temperature;BME280_humidity;BME280_pressure;Samples;Min_cycle;Max_cycle;Signal;HPM_P1;HPM_P2
2023/05/01 00:01:27;;;;;;;24.63;16.03;;;;;;;9.56;100.00;96202.88;5055367;28;20054;-82
2023/05/01 00:03:53;;;;;;;33.13;23.83;;;;;;;9.52;100.00;96198.06;5050911;28;20087;-82
2023/05/01 00:06:19;;;;;;;25.43;16.70;;;;;;;9.41;100.00;96196.50;5070428;28;20375;-82
2023/05/01 00:08:51;;;;;;;23.20;16.80;;;;;;;9.38;100.00;96191.56;5068030;28;20093;-82
2023/05/01 00:11:17;;;;;;;26.95;19.85;;;;;;;9.35;100.00;96191.88;5064743;28;20390;-82
2023/05/01 00:13:43;;;;;;;25.30;16.43;;;;;;;9.24;100.00;96184.25;5049043;28;20048;-82
2023/05/01 00:16:09;;;;;;;22.03;14.13;;;;;;;9.16;100.00;96183.22;5065363;28;20078;-82
2023/05/01 00:18:35;;;;;;;16.07;11.60;;;;;;;9.27;100.00;96178.69;5061553;28;20095;-82
2023/05/01 00:21:00;;;;;;;10.70;7.20;;;;;;;9.24;100.00;96182.44;5063652;28;20031;-81
2023/05/01 00:23:26;;;;;;;11.60;7.20;;;;;;;9.28;100.00;96175.91;5050944;28;20025;-82
2023/05/01 00:25:52;;;;;;;11.47;8.73;;;;;;;9.25;100.00;96178.84;5066759;28;20032;-82
2023/05/01 00:28:18;;;;;;;18.87;12.73;;;;;;;9.29;100.00;96176.72;5068241;28;20032;-82
2023/05/01 00:30:46;;;;;;;13.80;10.17;;;;;;;9.37;100.00;96171.56;5054735;28;20126;-82
2023/05/01 00:33:13;;;;;;;10.37;7.23;;;;;;;9.36;100.00;96162.03;5047848;28;20037;-81
2023/05/01 00:35:39;;;;;;;8.70;6.80;;;;;;;9.23;100.00;96166.88;5051552;28;20036;-82
2023/05/01 00:38:04;;;;;;;16.60;11.10;;;;;;;9.18;100.00;96157.63;5051512;28;20040;-82
2023/05/01 00:40:30;;;;;;;11.33;6.77;;;;;;;9.22;100.00;96150.28;5055857;28;20502;-82
2023/05/01 00:42:56;;;;;;;19.97;14.97;;;;;;;9.35;100.00;96160.38;5054262;28;20077;-82
2023/05/01 00:45:22;;;;;;;13.13;9.43;;;;;;;9.31;100.00;96154.63;5071976;28;20119;-82
2023/05/01 00:47:59;;;;;;;23.83;18.03;;;;;;;9.28;100.00;96159.34;5070881;28;20039;-82
2023/05/01 00:50:24;;;;;;;15.43;11.10;;;;;;;9.30;100.00;96152.16;5058921;28;20047;-82
2023/05/01 00:52:50;;;;;;;17.37;11.33;;;;;;;9.29;100.00;96151.34;5066159;28;20041;-82
2023/05/01 00:55:23;;;;;;;10.40;7.57;;;;;;;9.34;100.00;96148.25;5071307;28;20039;-82
2023/05/01 00:57:49;;;;;;;8.70;6.22;;;;;;;9.39;100.00;96151.25;5052112;28;20424;-82
2023/05/01 01:00:18;;;;;;;10.20;6.70;;;;;;;9.45;100.00;96145.34;5059842;28;20044;-82
2023/05/01 01:02:45;;;;;;;9.33;6.20;;;;;;;9.36;100.00;96141.06;5033130;28;20028;-83
2023/05/01 01:05:11;;;;;;;10.40;6.27;;;;;;;9.28;100.00;96144.41;5053228;28;20036;-81
2023/05/01 01:08:09;;;;;;;9.07;6.00;;;;;;;9.40;100.00;96140.56;5071469;28;20082;-82
2023/05/01 01:10:42;;;;;;;9.07;6.00;;;;;;;9.49;100.00;96138.00;5072132;28;20090;-82
2023/05/01 01:13:25;;;;;;;8.70;6.05;;;;;;;9.46;100.00;96133.91;5074160;28;20037;-82
2023/05/01 01:16:07;;;;;;;8.35;5.88;;;;;;;9.43;100.00;96121.91;5060104;28;20029;-82
2023/05/01 01:18:47;;;;;;;7.57;5.63;;;;;;;9.46;100.00;96120.78;5038040;28;20035;-82
2023/05/01 01:21:24;;;;;;;8.57;5.93;;;;;;;9.42;100.00;96122.88;5070085;28;20028;-81
2023/05/01 01:24:40;;;;;;;9.03;5.80;;;;;;;9.45;100.00;96121.72;5072905;28;20044;-82
2023/05/01 01:27:23;;;;;;;10.13;5.50;;;;;;;9.32;100.00;96124.78;5008243;28;20048;-81
2023/05/01 01:30:28;;;;;;;8.55;5.80;;;;;;;9.28;100.00;96127.84;5037439;28;20730;-82
2023/05/01 01:33:02;;;;;;;10.17;5.33;;;;;;;9.14;100.00;96127.44;5069832;28;20051;-82
2023/05/01 01:35:30;;;;;;;7.37;5.33;;;;;;;9.11;100.00;96126.91;5063479;28;20036;-82
2023/05/01 01:38:02;;;;;;;7.50;4.87;;;;;;;9.06;100.00;96129.19;5052491;28;20127;-82
2023/05/01 01:40:33;;;;;;;8.27;5.47;;;;;;;9.08;100.00;96121.97;5069828;28;20044;-81
2023/05/01 01:43:06;;;;;;;8.85;5.57;;;;;;;9.00;100.00;96125.38;5069501;28;20056;-82
2023/05/01 01:45:45;;;;;;;8.50;6.23;;;;;;;8.99;100.00;96121.09;5052988;28;20470;-82
2023/05/01 01:48:16;;;;;;;8.23;5.27;;;;;;;8.93;100.00;96108.59;5053001;28;20724;-82
2023/05/01 01:50:51;;;;;;;7.50;5.50;;;;;;;8.98;100.00;96106.31;5049108;28;20071;-82
2023/05/01 01:53:19;;;;;;;9.43;5.83;;;;;;;8.98;100.00;96114.19;5046302;28;20032;-82
2023/05/01 01:55:48;;;;;;;9.70;6.10;;;;;;;8.92;100.00;96109.53;5069660;28;20113;-82
2023/05/01 01:58:15;;;;;;;8.23;5.97;;;;;;;8.90;100.00;96104.47;5069869;28;20063;-82
2023/05/01 02:00:44;;;;;;;9.10;6.00;;;;;;;8.91;100.00;96108.72;5057489;28;20068;-82
2023/05/01 02:03:12;;;;;;;9.10;5.70;;;;;;;8.87;100.00;96103.94;5052111;28;20024;-82
2023/05/01 02:05:41;;;;;;;9.03;6.03;;;;;;;8.69;100.00;96104.78;5066838;28;20101;-82
2023/05/01 02:08:29;;;;;;;8.27;5.80;;;;;;;8.72;100.00;96103.69;5056886;28;20115;-82
2023/05/01 02:10:59;;;;;;;11.03;6.27;;;;;;;8.77;100.00;96104.03;5041650;28;20082;-82
2023/05/01 02:13:30;;;;;;;10.07;5.67;;;;;;;8.80;100.00;96105.53;5081865;28;20036;-82
2023/05/01 02:16:02;;;;;;;8.83;6.30;;;;;;;8.76;100.00;96097.16;5069618;28;20071;-82
2023/05/01 02:18:30;;;;;;;8.40;6.10;;;;;;;8.68;100.00;96090.03;5065629;28;20033;-82
2023/05/01 02:21:04;;;;;;;9.80;5.80;;;;;;;8.85;100.00;96096.25;5040149;28;20048;-82
2023/05/01 02:23:36;;;;;;;10.13;6.20;;;;;;;8.80;100.00;96089.81;5070484;28;20032;-82
2023/05/01 02:26:03;;;;;;;7.83;5.33;;;;;;;8.85;100.00;96101.50;5036717;28;20062;-82
2023/05/01 02:28:29;;;;;;;8.33;6.17;;;;;;;8.82;100.00;96093.94;5028772;28;20040;-81
2023/05/01 02:30:58;;;;;;;9.20;6.30;;;;;;;8.83;100.00;96090.31;5021716;28;20032;-82
2023/05/01 02:33:25;;;;;;;8.23;5.90;;;;;;;8.72;100.00;96082.69;5018124;28;20094;-82
2023/05/01 02:35:51;;;;;;;7.30;5.10;;;;;;;8.74;100.00;96086.78;5036321;28;20024;-82
2023/05/01 02:38:18;;;;;;;8.67;5.33;;;;;;;8.76;100.00;96085.84;5019060;28;20017;-82
2023/05/01 02:40:49;;;;;;;9.10;5.80;;;;;;;8.70;100.00;96077.59;5019887;28;20032;-82
2023/05/01 02:43:18;;;;;;;9.03;5.70;;;;;;;8.57;100.00;96071.91;5027375;28;20353;-82
2023/05/01 02:45:46;;;;;;;9.53;5.87;;;;;;;8.53;100.00;96065.34;5018596;28;20042;-82
2023/05/01 02:48:16;;;;;;;8.33;5.97;;;;;;;8.57;100.00;96063.22;5011054;28;20028;-81
2023/05/01 02:50:45;;;;;;;8.17;5.87;;;;;;;8.51;100.00;96062.03;5027959;28;20033;-81
2023/05/01 02:53:12;;;;;;;9.17;5.60;;;;;;;8.70;100.00;96055.81;5013198;28;20028;-81
2023/05/01 02:55:49;;;;;;;9.77;5.80;;;;;;;8.72;100.00;96064.34;5039357;28;20908;-82
2023/05/01 02:58:19;;;;;;;9.53;5.50;;;;;;;8.63;100.00;96050.34;5032755;28;20441;-81
2023/05/01 03:00:47;;;;;;;8.03;5.30;;;;;;;8.65;100.00;96058.03;5032087;28;20043;-82
2023/05/01 03:03:13;;;;;;;7.83;5.37;;;;;;;8.64;100.00;96048.53;5007755;28;20032;-82
2023/05/01 03:05:39;;;;;;;6.87;5.27;;;;;;;8.62;100.00;96040.84;5015493;28;20039;-80
2023/05/01 03:08:05;;;;;;;7.17;4.70;;;;;;;8.62;100.00;96043.47;4997240;28;20040;-81
2023/05/01 03:10:31;;;;;;;7.20;4.87;;;;;;;8.67;100.00;96043.00;4986007;28;20020;-81
2023/05/01 03:12:57;;;;;;;8.23;5.03;;;;;;;8.71;100.00;96039.09;5005570;28;20036;-81
2023/05/01 03:15:22;;;;;;;6.97;4.63;;;;;;;8.75;100.00;96048.28;4987091;28;20032;-82
2023/05/01 03:17:48;;;;;;;8.00;5.00;;;;;;;8.72;100.00;96038.13;5004988;28;21920;-82
2023/05/01 03:20:14;;;;;;;5.60;3.90;;;;;;;8.80;100.00;96039.97;4983600;28;20485;-81
2023/05/01 03:22:40;;;;;;;6.37;4.30;;;;;;;8.86;100.00;96028.88;5002010;28;20044;-80
2023/05/01 03:25:07;;;;;;;6.80;4.67;;;;;;;8.86;100.00;96029.72;4992586;28;20029;-82
2023/05/01 03:27:32;;;;;;;7.07;4.70;;;;;;;8.86;100.00;96036.75;5018173;28;20330;-82
2023/05/01 03:29:58;;;;;;;7.90;4.67;;;;;;;8.82;100.00;96033.63;5045490;28;20042;-82
2023/05/01 03:32:24;;;;;;;8.43;4.80;;;;;;;8.79;100.00;96033.94;5051875;28;20044;-82
2023/05/01 03:34:51;;;;;;;7.77;4.67;;;;;;;8.68;100.00;96029.72;5055006;28;20674;-82
2023/05/01 03:37:19;;;;;;;7.53;4.30;;;;;;;8.76;100.00;96028.97;5049644;28;20062;-82
2023/05/01 03:39:50;;;;;;;6.17;4.30;;;;;;;8.81;100.00;96031.13;5045645;28;20036;-82
2023/05/01 03:42:34;;;;;;;7.57;4.77;;;;;;;8.79;100.00;96026.06;5067937;28;20039;-82
2023/05/01 03:45:23;;;;;;;8.75;4.93;;;;;;;8.85;100.00;96021.97;5052134;28;20401;-82
2023/05/01 03:47:49;;;;;;;6.30;4.13;;;;;;;8.85;100.00;96022.81;5051380;28;20074;-82
2023/05/01 03:50:25;;;;;;;7.60;4.67;;;;;;;8.83;100.00;96019.53;5047808;28;20041;-82
2023/05/01 03:52:51;;;;;;;7.10;4.37;;;;;;;8.88;100.00;96019.88;5064517;28;20040;-82
2023/05/01 03:55:20;;;;;;;8.30;4.23;;;;;;;8.95;100.00;96020.94;5065741;28;20062;-82
2023/05/01 03:57:46;;;;;;;6.90;4.53;;;;;;;8.95;100.00;96020.94;5064105;28;20433;-82
2023/05/01 04:00:13;;;;;;;8.43;4.83;;;;;;;8.92;100.00;96020.38;5066478;28;20028;-82
2023/05/01 04:02:43;;;;;;;6.60;4.60;;;;;;;8.95;100.00;96012.22;5050660;28;20032;-83
2023/05/01 04:05:13;;;;;;;10.53;4.90;;;;;;;8.94;100.00;96018.44;5055386;28;20043;-82
2023/05/01 04:07:43;;;;;;;6.93;4.30;;;;;;;8.87;100.00;96023.47;5071989;28;20029;-82
2023/05/01 04:10:09;;;;;;;7.93;4.37;;;;;;;8.83;100.00;96016.09;5053733;28;20024;-82
2023/05/01 04:12:45;;;;;;;6.63;3.50;;;;;;;8.78;100.00;96015.72;5063259;28;20035;-82
2023/05/01 04:15:12;;;;;;;6.80;4.63;;;;;;;8.95;100.00;96018.31;5070038;28;20034;-82
2023/05/01 04:17:40;;;;;;;6.87;4.67;;;;;;;8.75;100.00;96019.44;5071794;28;20151;-82
2023/05/01 04:20:07;;;;;;;7.50;4.63;;;;;;;8.72;100.00;96017.97;5071670;28;20548;-82
2023/05/01 04:22:33;;;;;;;5.93;4.00;;;;;;;8.79;100.00;96022.63;5060820;28;20036;-82
2023/05/01 04:25:00;;;;;;;7.93;4.90;;;;;;;8.81;100.00;96012.78;5057568;28;20028;-82
2023/05/01 04:27:26;;;;;;;10.30;4.60;;;;;;;8.74;100.00;96009.94;5071291;28;20110;-82
2023/05/01 04:30:00;;;;;;;6.30;4.50;;;;;;;8.96;100.00;96013.88;5051819;28;20028;-83
2023/05/01 04:32:25;;;;;;;9.40;4.47;;;;;;;8.88;100.00;96017.25;5061494;28;20033;-82
2023/05/01 04:34:52;;;;;;;10.67;4.60;;;;;;;8.91;100.00;96016.94;5053217;28;20035;-82
2023/05/01 04:37:18;;;;;;;6.73;3.97;;;;;;;8.98;100.00;96015.34;5054890;28;20028;-82
2023/05/01 04:39:43;;;;;;;7.27;4.60;;;;;;;9.10;100.00;96015.91;5072281;28;20166;-82
2023/05/01 04:42:09;;;;;;;6.87;4.93;;;;;;;9.06;100.00;96017.22;5050801;28;20095;-82
2023/05/01 04:44:36;;;;;;;7.77;4.43;;;;;;;9.09;100.00;96016.91;5044618;28;20036;-82
2023/05/01 04:47:03;;;;;;;6.80;4.83;;;;;;;9.13;100.00;96020.84;5045352;28;20021;-81
2023/05/01 04:49:29;;;;;;;6.87;4.63;;;;;;;9.09;100.00;96022.16;5043629;28;20161;-82
2023/05/01 04:51:55;;;;;;;7.90;4.77;;;;;;;9.12;100.00;96015.75;5053234;28;20027;-82
2023/05/01 04:54:24;;;;;;;8.43;4.93;;;;;;;9.06;100.00;96022.47;5070613;28;20033;-83
2023/05/01 04:56:50;;;;;;;9.53;4.93;;;;;;;8.98;100.00;96019.78;5052176;28;20025;-82
2023/05/01 04:59:17;;;;;;;9.17;5.00;;;;;;;9.20;100.00;96024.50;5082545;28;20043;-81
2023/05/01 05:01:43;;;;;;;9.03;4.47;;;;;;;9.10;100.00;96025.59;5055237;28;20040;-82
2023/05/01 05:04:17;;;;;;;8.93;4.90;;;;;;;9.18;100.00;96020.38;5070547;28;20040;-82
2023/05/01 05:06:43;;;;;;;7.27;4.67;;;;;;;9.14;100.00;96022.50;5053954;28;20085;-82
2023/05/01 05:09:29;;;;;;;7.63;4.87;;;;;;;9.27;100.00;96032.56;5069286;28;20382;-82
2023/05/01 05:11:57;;;;;;;7.77;4.43;;;;;;;9.37;100.00;96028.03;5077488;28;20105;-81
2023/05/01 05:14:23;;;;;;;9.17;5.23;;;;;;;9.36;100.00;96029.03;5070715;28;20041;-82
2023/05/01 05:16:52;;;;;;;11.87;5.50;;;;;;;9.24;100.00;96022.38;5057539;28;20032;-81
2023/05/01 05:19:18;;;;;;;7.27;4.37;;;;;;;9.31;100.00;96027.84;5067155;28;20037;-82
2023/05/01 05:21:45;;;;;;;9.33;6.00;;;;;;;9.46;100.00;96023.66;5069890;28;20019;-82
2023/05/01 05:24:13;;;;;;;8.50;5.60;;;;;;;9.40;100.00;96022.47;5052601;28;20035;-82
2023/05/01 05:26:45;;;;;;;8.77;5.57;;;;;;;9.35;100.00;96023.91;5060154;28;20119;-82
2023/05/01 05:29:10;;;;;;;9.10;5.40;;;;;;;9.25;100.00;96021.41;5054016;28;20032;-82
2023/05/01 05:31:36;;;;;;;7.53;4.93;;;;;;;9.42;100.00;96014.44;5064142;28;20082;-82
2023/05/01 05:34:02;;;;;;;7.50;5.27;;;;;;;9.61;100.00;96022.06;5068706;28;20035;-83
2023/05/01 05:36:28;;;;;;;11.57;9.10;;;;;;;9.58;100.00;96019.75;5049588;28;20037;-82
2023/05/01 05:38:54;;;;;;;8.23;6.37;;;;;;;9.53;100.00;96015.97;5064871;28;20052;-82
2023/05/01 05:41:20;;;;;;;8.10;5.10;;;;;;;9.60;100.00;96014.34;5052994;28;20039;-82
2023/05/01 05:43:48;;;;;;;8.37;5.20;;;;;;;9.70;100.00;96014.22;5050466;28;20037;-82
2023/05/01 05:46:15;;;;;;;10.10;5.37;;;;;;;9.72;100.00;96020.13;5062354;28;20410;-82
2023/05/01 05:48:41;;;;;;;9.80;5.67;;;;;;;9.67;100.00;96016.19;5064512;28;20555;-82
2023/05/01 05:51:13;;;;;;;7.53;4.83;;;;;;;9.76;100.00;96017.03;5048132;28;20067;-82
2023/05/01 05:53:39;;;;;;;7.00;5.07;;;;;;;9.65;100.00;96014.69;5049898;28;20036;-82
2023/05/01 05:56:05;;;;;;;8.00;5.43;;;;;;;9.56;100.00;96015.66;5046243;28;20029;-82
2023/05/01 05:58:31;;;;;;;6.87;4.73;;;;;;;9.59;100.00;96010.91;5067383;28;20036;-82
2023/05/01 06:00:58;;;;;;;10.20;5.67;;;;;;;9.63;100.00;96011.41;5049433;28;20036;-81
2023/05/01 06:03:33;;;;;;;8.80;5.90;;;;;;;9.32;100.00;96016.34;5063673;28;20036;-82
2023/05/01 06:06:01;;;;;;;10.47;6.27;;;;;;;9.24;100.00;96014.50;5052517;28;20910;-82
2023/05/01 06:08:28;;;;;;;7.97;5.27;;;;;;;9.53;100.00;96010.72;5045238;28;20036;-82
2023/05/01 06:10:54;;;;;;;8.57;5.33;;;;;;;9.77;100.00;96013.44;5069455;28;20082;-82
2023/05/01 06:13:27;;;;;;;7.77;4.90;;;;;;;9.87;100.00;96008.03;5046619;28;20024;-82
2023/05/01 06:15:57;;;;;;;7.80;5.25;;;;;;;9.86;100.00;96001.16;5063141;28;20032;-82
2023/05/01 06:18:30;;;;;;;9.10;5.93;;;;;;;9.99;100.00;96000.66;5051493;28;20402;-82
2023/05/01 06:21:02;;;;;;;9.82;6.03;;;;;;;9.87;100.00;96008.03;5051003;28;20541;-82
2023/05/01 06:23:36;;;;;;;8.37;5.93;;;;;;;9.86;100.00;96003.78;5053001;28;20406;-82
2023/05/01 06:26:32;;;;;;;11.43;7.13;;;;;;;9.68;100.00;95998.63;5083244;28;20100;-82
2023/05/01 06:28:58;;;;;;;9.23;6.23;;;;;;;9.70;100.00;96001.91;5060735;28;20615;-82
2023/05/01 06:31:40;;;;;;;8.80;5.80;;;;;;;9.96;100.00;95999.19;5047937;28;20070;-81
2023/05/01 06:34:16;;;;;;;8.10;5.60;;;;;;;9.78;100.00;96001.13;5048412;28;20028;-81
2023/05/01 06:36:53;;;;;;;8.67;5.83;;;;;;;9.95;100.00;96000.16;5053176;28;20039;-81
2023/05/01 06:39:21;;;;;;;12.13;5.60;;;;;;;10.00;100.00;96002.31;5068344;28;20243;-82
2023/05/01 06:41:48;;;;;;;8.13;5.50;;;;;;;10.04;100.00;96007.09;5050874;28;20137;-82
2023/05/01 06:44:18;;;;;;;10.33;6.00;;;;;;;9.95;100.00;96009.84;5048087;28;20021;-81
2023/05/01 06:46:47;;;;;;;10.87;6.30;;;;;;;9.99;100.00;96014.63;5049057;28;20040;-81
2023/05/01 06:49:13;;;;;;;9.43;6.70;;;;;;;10.00;100.00;96015.47;5068092;28;20119;-81
2023/05/01 06:51:40;;;;;;;9.30;6.80;;;;;;;9.82;100.00;96020.81;5050393;28;20039;-81
2023/05/01 06:54:13;;;;;;;14.50;6.57;;;;;;;9.81;100.00;96021.81;5045439;28;20801;-82
2023/05/01 06:56:39;;;;;;;9.07;6.15;;;;;;;9.62;100.00;96020.25;5053430;28;20073;-80
2023/05/01 06:59:07;;;;;;;9.47;6.63;;;;;;;9.74;100.00;96026.88;5068472;28;20086;-80
2023/05/01 07:01:48;;;;;;;10.70;6.17;;;;;;;9.89;100.00;96027.06;5053320;28;20033;-80
2023/05/01 07:04:22;;;;;;;10.10;6.80;;;;;;;9.48;100.00;96026.09;5047930;28;20028;-80
2023/05/01 07:06:49;;;;;;;9.40;6.43;;;;;;;9.78;100.00;96033.44;5067792;28;20043;-80
2023/05/01 07:09:31;;;;;;;13.13;6.93;;;;;;;9.82;100.00;96029.50;5048220;28;20393;-81
2023/05/01 07:12:10;;;;;;;10.77;6.23;;;;;;;9.49;100.00;96039.09;5062361;28;20044;-81
2023/05/01 07:14:40;;;;;;;9.53;6.90;;;;;;;9.41;100.00;96039.03;5084447;28;20032;-81
2023/05/01 07:17:08;;;;;;;10.67;7.27;;;;;;;9.65;100.00;96040.94;5067255;28;20035;-81
2023/05/01 07:19:34;;;;;;;11.83;8.97;;;;;;;9.76;100.00;96042.47;5050942;28;20029;-81
2023/05/01 07:22:02;;;;;;;11.47;7.27;;;;;;;9.53;100.00;96034.34;5067194;28;20043;-81
2023/05/01 07:24:39;;;;;;;11.67;7.10;;;;;;;9.70;100.00;96032.59;5069234;28;20037;-81
2023/05/01 07:27:05;;;;;;;10.33;7.10;;;;;;;9.84;100.00;96042.50;5057437;28;20050;-79
2023/05/01 07:29:31;;;;;;;10.20;7.80;;;;;;;9.97;100.00;96035.00;5039767;28;20025;-82
2023/05/01 07:31:56;;;;;;;9.93;7.13;;;;;;;10.18;100.00;96036.34;5047871;28;20528;-84
2023/05/01 07:34:22;;;;;;;13.03;8.33;;;;;;;10.31;100.00;96034.09;5049850;28;20486;-82
2023/05/01 07:36:49;;;;;;;9.80;7.20;;;;;;;10.13;100.00;96042.91;5063205;28;20475;-82
2023/05/01 07:39:16;;;;;;;10.90;8.27;;;;;;;10.32;100.00;96039.19;5044473;28;20059;-81
2023/05/01 07:41:47;;;;;;;8.77;7.00;;;;;;;10.44;100.00;96039.69;5067395;28;20382;-82
2023/05/01 07:44:20;;;;;;;12.27;7.87;;;;;;;10.44;100.00;96041.50;5065193;28;20036;-81
2023/05/01 07:46:47;;;;;;;11.57;7.97;;;;;;;10.38;100.00;96045.59;5068761;28;20112;-82
2023/05/01 07:49:13;;;;;;;11.83;8.40;;;;;;;10.35;100.00;96038.84;5059948;28;20482;-81
2023/05/01 07:51:39;;;;;;;12.37;7.83;;;;;;;10.14;100.00;96051.63;5044220;28;20034;-82
2023/05/01 07:54:20;;;;;;;10.67;8.10;;;;;;;10.49;100.00;96045.28;5048953;28;20033;-82
2023/05/01 07:56:47;;;;;;;12.23;7.93;;;;;;;10.44;100.00;96047.59;5050199;28;20025;-81
2023/05/01 07:59:15;;;;;;;13.67;7.47;;;;;;;10.60;100.00;96047.59;5066329;28;20043;-81
2023/05/01 08:01:45;;;;;;;10.33;6.57;;;;;;;10.72;100.00;96042.81;5059412;28;20025;-81
2023/05/01 08:04:11;;;;;;;10.13;7.63;;;;;;;10.90;100.00;96045.31;5053222;28;20032;-81
2023/05/01 08:06:37;;;;;;;11.67;7.60;;;;;;;10.90;100.00;96045.31;5061711;28;20048;-81
2023/05/01 08:09:02;;;;;;;11.13;6.93;;;;;;;10.80;100.00;96032.31;5064880;28;20120;-80
2023/05/01 08:11:37;;;;;;;10.60;7.80;;;;;;;10.97;100.00;96038.38;5050073;28;20024;-80
2023/05/01 08:14:03;;;;;;;10.30;7.63;;;;;;;10.85;100.00;96043.16;5066701;28;20079;-80
2023/05/01 08:16:30;;;;;;;12.23;8.27;;;;;;;10.69;100.00;96047.59;5068552;28;20076;-80
2023/05/01 08:18:57;;;;;;;13.93;8.70;;;;;;;10.50;100.00;96054.84;5062260;28;20127;-80
2023/05/01 08:21:30;;;;;;;12.10;8.43;;;;;;;10.52;100.00;96049.41;5068960;28;20029;-80
2023/05/01 08:23:56;;;;;;;11.00;7.43;;;;;;;10.58;100.00;96054.00;5063562;28;20028;-80
2023/05/01 08:26:23;;;;;;;10.47;7.67;;;;;;;9.98;100.00;96056.81;5048435;28;20043;-80
2023/05/01 08:29:04;;;;;;;15.53;8.87;;;;;;;10.27;100.00;96048.56;5066174;28;20016;-80
2023/05/01 08:31:30;;;;;;;13.07;8.93;;;;;;;10.36;100.00;96060.72;5049815;28;20503;-80
2023/05/01 08:33:56;;;;;;;11.73;8.67;;;;;;;10.43;100.00;96055.63;5048527;28;20028;-80
2023/05/01 08:36:23;;;;;;;13.73;9.10;;;;;;;10.63;100.00;96046.47;5047184;28;20045;-80
2023/05/01 08:38:49;;;;;;;10.27;8.03;;;;;;;10.85;100.00;96044.97;5049133;28;20062;-80
2023/05/01 08:41:21;;;;;;;11.67;8.70;;;;;;;11.02;100.00;96057.13;5069334;28;20083;-80
2023/05/01 08:43:52;;;;;;;11.67;8.37;;;;;;;11.26;100.00;96043.09;5055265;28;20039;-80
2023/05/01 08:46:37;;;;;;;11.57;7.97;;;;;;;11.14;100.00;96044.44;5050386;28;20098;-80
2023/05/01 08:49:04;;;;;;;11.53;8.23;;;;;;;11.19;100.00;96049.19;5070035;28;20024;-80
2023/05/01 08:51:38;;;;;;;11.80;7.90;;;;;;;11.27;100.00;96049.19;5047708;28;20029;-81
2023/05/01 08:54:07;;;;;;;10.17;7.83;;;;;;;11.50;100.00;96047.50;5053630;28;20037;-80
2023/05/01 08:56:35;;;;;;;10.23;7.57;;;;;;;10.99;100.00;96044.28;5070318;28;20454;-82
2023/05/01 08:59:10;;;;;;;11.53;7.93;;;;;;;11.29;100.00;96048.00;5069791;28;20375;-81
2023/05/01 09:01:42;;;;;;;11.43;7.97;;;;;;;11.68;100.00;96038.53;5063590;28;20059;-81
2023/05/01 09:04:17;;;;;;;10.70;7.85;;;;;;;12.13;100.00;96037.03;5070658;28;20056;-81
2023/05/01 09:06:43;;;;;;;11.23;7.67;;;;;;;11.71;100.00;96030.28;5070197;28;20039;-81
2023/05/01 09:09:09;;;;;;;10.70;7.00;;;;;;;11.60;100.00;96041.19;5062583;28;20025;-81
2023/05/01 09:11:35;;;;;;;14.70;7.80;;;;;;;11.85;100.00;96039.31;5050105;28;20439;-81
2023/05/01 09:14:04;;;;;;;9.13;7.17;;;;;;;12.10;100.00;96040.00;5051566;28;20090;-81
2023/05/01 09:16:40;;;;;;;10.00;7.07;;;;;;;12.58;100.00;96030.16;5049914;28;20052;-81
2023/05/01 09:19:07;;;;;;;12.17;8.47;;;;;;;12.19;100.00;96036.34;5041008;28;20389;-81
2023/05/01 09:21:34;;;;;;;11.83;7.87;;;;;;;12.15;100.00;96029.78;5071748;28;20028;-86
2023/05/01 09:24:01;;;;;;;9.97;7.80;;;;;;;11.99;100.00;96031.50;5072269;28;20043;-86
2023/05/01 09:26:27;;;;;;;16.63;9.27;;;;;;;12.10;100.00;96032.09;5062929;28;20079;-86
2023/05/01 09:28:58;;;;;;;11.47;8.17;;;;;;;12.39;100.00;96032.25;5053881;28;20468;-86
2023/05/01 09:31:31;;;;;;;10.77;7.20;;;;;;;12.19;100.00;96025.78;5050279;28;20028;-86
2023/05/01 09:34:07;;;;;;;11.85;7.72;;;;;;;12.43;100.00;96028.25;5069018;28;20147;-84
2023/05/01 09:36:39;;;;;;;10.73;7.40;;;;;;;12.34;100.00;96031.13;5076892;28;20041;-85
2023/05/01 09:39:21;;;;;;;10.50;7.50;;;;;;;13.06;100.00;96030.72;5052143;28;20035;-86
2023/05/01 09:41:55;;;;;;;12.03;9.10;;;;;;;13.07;100.00;96027.06;5047270;28;20033;-87
2023/05/01 09:44:25;;;;;;;11.60;8.13;;;;;;;12.58;100.00;96030.16;5073429;28;20051;-89
2023/05/01 09:46:51;;;;;;;13.43;9.33;;;;;;;12.89;100.00;96032.69;5070627;28;20033;-89
2023/05/01 09:49:19;;;;;;;19.03;12.73;;;;;;;12.61;100.00;96037.69;5052223;28;20032;-86
2023/05/01 09:51:50;;;;;;;11.87;8.80;;;;;;;12.67;100.00;96027.25;5052854;28;20038;-87
2023/05/01 09:54:27;;;;;;;16.60;13.33;;;;;;;12.79;100.00;96018.94;5072215;28;20031;-84
2023/05/01 09:57:05;;;;;;;15.10;11.43;;;;;;;13.24;100.00;96023.28;5071801;28;20093;-84
2023/05/01 09:59:33;;;;;;;19.27;11.87;;;;;;;13.47;100.00;96020.59;5053235;28;20068;-84
2023/05/01 10:02:04;;;;;;;24.80;13.37;;;;;;;13.71;100.00;96014.19;5050443;28;20025;-84
2023/05/01 10:04:36;;;;;;;11.93;8.33;;;;;;;14.10;100.00;96013.03;5069754;28;20033;-84
2023/05/01 10:07:12;;;;;;;10.47;7.60;;;;;;;13.97;100.00;96004.94;5083466;28;20032;-85
2023/05/01 10:09:40;;;;;;;11.57;7.63;;;;;;;14.93;100.00;96002.88;5047903;28;20029;-83
2023/05/01 10:12:27;;;;;;;10.90;7.70;;;;;;;15.39;100.00;95997.88;5060744;28;20556;-84
2023/05/01 10:14:56;;;;;;;10.90;8.33;;;;;;;14.32;100.00;96004.13;5069484;28;20056;-84
2023/05/01 10:17:22;;;;;;;9.60;7.20;;;;;;;15.12;100.00;95988.94;5066455;28;20094;-84
2023/05/01 10:19:50;;;;;;;10.13;7.23;;;;;;;14.87;100.00;95998.34;5062595;28;20058;-84
2023/05/01 10:22:17;;;;;;;12.70;8.23;;;;;;;14.83;100.00;96005.84;5052546;28;20044;-84
2023/05/01 10:24:53;;;;;;;10.67;6.73;;;;;;;15.53;100.00;95998.78;5069845;28;20032;-83
2023/05/01 10:27:23;;;;;;;11.13;8.13;;;;;;;15.13;100.00;96000.38;5052660;28;20039;-84
2023/05/01 10:29:54;;;;;;;10.67;7.80;;;;;;;14.45;100.00;96007.88;5053003;28;20056;-84
2023/05/01 10:32:24;;;;;;;12.13;8.80;;;;;;;14.82;100.00;96020.06;5069045;28;20036;-84
2023/05/01 10:35:03;;;;;;;18.40;14.40;;;;;;;15.19;100.00;96002.22;5049876;28;20744;-84
2023/05/01 10:37:38;;;;;;;12.57;8.23;;;;;;;15.26;100.00;96006.56;5068894;28;20035;-84
2023/05/01 10:40:37;;;;;;;8.70;7.17;;;;;;;14.42;100.00;96010.91;5069572;28;20047;-84
2023/05/01 10:43:30;;;;;;;10.90;7.13;;;;;;;14.82;100.00;96012.13;5049205;28;20594;-84
2023/05/01 10:46:20;;;;;;;8.83;7.00;;;;;;;14.77;100.00;96010.06;5042719;28;21124;-85
2023/05/01 10:48:57;;;;;;;10.57;7.63;;;;;;;14.92;100.00;96007.31;5065890;28;20040;-84
2023/05/01 10:51:26;;;;;;;11.27;7.57;;;;;;;15.57;100.00;96008.78;5047444;28;20028;-83
2023/05/01 10:54:22;;;;;;;11.53;7.03;;;;;;;15.49;100.00;96002.81;5046273;28;20029;-84
2023/05/01 10:56:48;;;;;;;16.23;11.43;;;;;;;15.63;100.00;96001.88;5057410;28;20748;-84
2023/05/01 10:59:15;;;;;;;9.90;7.43;;;;;;;16.32;100.00;95997.47;5074734;28;20042;-84
2023/05/01 11:01:50;;;;;;;10.23;7.00;;;;;;;16.73;100.00;95999.97;5067908;28;20052;-84
2023/05/01 11:04:48;;;;;;;8.05;6.43;;;;;;;16.14;100.00;95990.09;5053050;28;20094;-84
2023/05/01 11:07:16;;;;;;;8.50;6.88;;;;;;;16.42;100.00;95987.28;5050675;28;20082;-91
2023/05/01 11:10:24;;;;;;;11.80;6.72;;;;;;;15.81;100.00;95976.69;5044423;28;20036;-83
2023/05/01 11:13:14;;;;;;;11.25;8.63;;;;;;;16.21;100.00;95975.81;5048750;28;20052;-83
2023/05/01 11:15:40;;;;;;;9.32;7.00;;;;;;;17.17;100.00;95970.16;5065037;28;20033;-82
2023/05/01 11:18:11;;;;;;;9.95;7.13;;;;;;;17.63;100.00;95969.22;5068199;28;20039;-83
2023/05/01 11:20:45;;;;;;;9.75;7.50;;;;;;;18.19;100.00;95966.97;5048656;28;20033;-83
2023/05/01 11:23:21;;;;;;;9.40;6.45;;;;;;;18.03;100.00;95960.28;5064615;28;20047;-83
2023/05/01 11:26:03;;;;;;;9.32;6.07;;;;;;;17.64;100.00;95957.56;5069679;28;20035;-83
2023/05/01 11:28:30;;;;;;;8.73;6.30;;;;;;;17.25;100.00;95968.31;5051198;28;20047;-84
2023/05/01 11:30:56;;;;;;;8.52;6.07;;;;;;;18.36;100.00;95962.78;5049154;28;20032;-82
2023/05/01 11:33:26;;;;;;;7.40;5.57;;;;;;;18.71;100.00;95956.97;5058812;28;20040;-83
2023/05/01 11:35:59;;;;;;;9.45;6.00;;;;;;;17.98;100.00;95957.47;5067853;28;20039;-83
2023/05/01 11:38:29;;;;;;;;;;;;;;;18.00;100.00;95958.88;5067299;28;20508;-83
2023/05/01 11:40:59;;;;;;;7.60;5.35;;;;;;;18.29;100.00;95959.34;5062773;28;20010;-83
2023/05/01 11:43:26;;;;;;;8.38;5.93;;;;;;;18.17;100.00;95953.84;5064943;28;20097;-84